Terminal Aerodrome Forecast
Issued by NWS San Angelo, TX

Home | Current Version | Previous Version | Text Only | Print | Product List | Glossary On
Versions: 1 2 3 4 5 6 7 8 9 10 11 12 13 14
862
FTUS44 KSJT 101125
TAFABI
TAF
KABI 101125Z 1012/1112 18005KT P6SM SKC
     FM101600 23010KT P6SM SKC
     FM101800 24014G21KT P6SM SKC
     FM110000 20010KT P6SM SKC=

USA.gov is the U.S. government's official web portal to all federal, state and local government web resources and services.